sensor_id;sensor_type;location;lat;lon;timestamp;temperature;humidity
15879;DHT22;61999;51.514;14.614;2022-11-12T00:01:24;2.00;59.80
15879;DHT22;61999;51.514;14.614;2022-11-12T00:03:52;2.00;59.70
15879;DHT22;61999;51.514;14.614;2022-11-12T00:06:23;2.10;59.80
15879;DHT22;61999;51.514;14.614;2022-11-12T00:08:52;2.00;59.80
15879;DHT22;61999;51.514;14.614;2022-11-12T00:11:20;2.10;59.90
15879;DHT22;61999;51.514;14.614;2022-11-12T00:13:50;2.00;59.90
15879;DHT22;61999;51.514;14.614;2022-11-12T00:16:19;2.10;59.90
15879;DHT22;61999;51.514;14.614;2022-11-12T00:18:47;2.00;59.80
15879;DHT22;61999;51.514;14.614;2022-11-12T00:21:16;2.10;59.90
15879;DHT22;61999;51.514;14.614;2022-11-12T00:23:44;2.00;59.90
15879;DHT22;61999;51.514;14.614;2022-11-12T00:26:14;2.10;60.00
15879;DHT22;61999;51.514;14.614;2022-11-12T00:28:44;2.00;60.00
15879;DHT22;61999;51.514;14.614;2022-11-12T00:31:13;2.10;60.10
15879;DHT22;61999;51.514;14.614;2022-11-12T00:33:43;2.00;60.00
15879;DHT22;61999;51.514;14.614;2022-11-12T00:36:11;2.00;60.10
15879;DHT22;61999;51.514;14.614;2022-11-12T00:38:40;2.00;60.20
15879;DHT22;61999;51.514;14.614;2022-11-12T00:41:08;2.10;60.10
15879;DHT22;61999;51.514;14.614;2022-11-12T00:43:37;2.00;60.20
15879;DHT22;61999;51.514;14.614;2022-11-12T00:46:05;2.10;60.20
15879;DHT22;61999;51.514;14.614;2022-11-12T00:48:35;2.00;60.20
15879;DHT22;61999;51.514;14.614;2022-11-12T00:51:05;2.10;60.30
15879;DHT22;61999;51.514;14.614;2022-11-12T00:53:34;2.10;60.30
15879;DHT22;61999;51.514;14.614;2022-11-12T00:56:04;2.00;60.30
15879;DHT22;61999;51.514;14.614;2022-11-12T00:58:35;2.10;60.30
15879;DHT22;61999;51.514;14.614;2022-11-12T01:01:05;2.10;60.30
15879;DHT22;61999;51.514;14.614;2022-11-12T01:03:37;2.10;60.40
15879;DHT22;61999;51.514;14.614;2022-11-12T01:06:09;2.00;60.30
15879;DHT22;61999;51.514;14.614;2022-11-12T01:08:40;2.00;60.40
15879;DHT22;61999;51.514;14.614;2022-11-12T01:11:11;2.00;60.90
15879;DHT22;61999;51.514;14.614;2022-11-12T01:13:44;2.00;60.60
15879;DHT22;61999;51.514;14.614;2022-11-12T01:16:16;2.00;60.50
15879;DHT22;61999;51.514;14.614;2022-11-12T01:18:51;2.00;60.40
15879;DHT22;61999;51.514;14.614;2022-11-12T01:21:23;2.00;60.50
15879;DHT22;61999;51.514;14.614;2022-11-12T01:23:53;2.00;60.70
15879;DHT22;61999;51.514;14.614;2022-11-12T01:26:22;1.90;60.50
15879;DHT22;61999;51.514;14.614;2022-11-12T01:28:50;1.90;60.60
15879;DHT22;61999;51.514;14.614;2022-11-12T01:31:21;1.90;60.50
15879;DHT22;61999;51.514;14.614;2022-11-12T01:33:54;1.90;60.50
15879;DHT22;61999;51.514;14.614;2022-11-12T01:36:25;1.90;60.50
15879;DHT22;61999;51.514;14.614;2022-11-12T01:38:55;1.90;60.60
15879;DHT22;61999;51.514;14.614;2022-11-12T01:41:27;1.90;60.50
15879;DHT22;61999;51.514;14.614;2022-11-12T01:44:12;1.90;60.50
15879;DHT22;61999;51.514;14.614;2022-11-12T01:46:58;1.90;60.50
15879;DHT22;61999;51.514;14.614;2022-11-12T01:49:37;1.90;60.50
15879;DHT22;61999;51.514;14.614;2022-11-12T01:52:17;1.80;60.60
15879;DHT22;61999;51.514;14.614;2022-11-12T01:54:52;1.80;61.00
15879;DHT22;61999;51.514;14.614;2022-11-12T01:57:26;1.80;60.50
15879;DHT22;61999;51.514;14.614;2022-11-12T02:00:06;1.80;60.50
15879;DHT22;61999;51.514;14.614;2022-11-12T02:02:36;1.80;60.40
15879;DHT22;61999;51.514;14.614;2022-11-12T02:05:09;1.80;60.50
15879;DHT22;61999;51.514;14.614;2022-11-12T02:07:40;1.80;60.50
15879;DHT22;61999;51.514;14.614;2022-11-12T02:10:11;1.80;60.60
15879;DHT22;61999;51.514;14.614;2022-11-12T02:12:40;1.70;60.40
15879;DHT22;61999;51.514;14.614;2022-11-12T02:15:27;1.70;60.50
15879;DHT22;61999;51.514;14.614;2022-11-12T02:17:56;1.70;60.40
15879;DHT22;61999;51.514;14.614;2022-11-12T02:20:33;1.60;60.40
15879;DHT22;61999;51.514;14.614;2022-11-12T02:23:08;1.60;60.30
15879;DHT22;61999;51.514;14.614;2022-11-12T02:25:37;1.60;60.30
15879;DHT22;61999;51.514;14.614;2022-11-12T02:28:06;1.60;60.30
15879;DHT22;61999;51.514;14.614;2022-11-12T02:30:37;1.60;60.30
15879;DHT22;61999;51.514;14.614;2022-11-12T02:33:08;1.50;60.30
15879;DHT22;61999;51.514;14.614;2022-11-12T02:35:36;1.50;60.30
15879;DHT22;61999;51.514;14.614;2022-11-12T02:38:05;1.40;60.20
15879;DHT22;61999;51.514;14.614;2022-11-12T02:40:36;1.40;60.30
15879;DHT22;61999;51.514;14.614;2022-11-12T02:43:04;1.40;60.50
15879;DHT22;61999;51.514;14.614;2022-11-12T02:45:33;1.30;60.30
15879;DHT22;61999;51.514;14.614;2022-11-12T02:48:02;1.30;60.30
15879;DHT22;61999;51.514;14.614;2022-11-12T02:50:30;1.30;60.40
15879;DHT22;61999;51.514;14.614;2022-11-12T02:52:59;1.20;60.30
15879;DHT22;61999;51.514;14.614;2022-11-12T02:55:29;1.20;60.30
15879;DHT22;61999;51.514;14.614;2022-11-12T02:57:58;1.20;60.30
15879;DHT22;61999;51.514;14.614;2022-11-12T03:00:29;1.20;60.40
15879;DHT22;61999;51.514;14.614;2022-11-12T03:02:57;1.10;60.30
15879;DHT22;61999;51.514;14.614;2022-11-12T03:05:33;1.10;60.30
15879;DHT22;61999;51.514;14.614;2022-11-12T03:08:05;1.10;60.30
15879;DHT22;61999;51.514;14.614;2022-11-12T03:10:37;1.00;60.30
15879;DHT22;61999;51.514;14.614;2022-11-12T03:13:07;1.00;60.30
15879;DHT22;61999;51.514;14.614;2022-11-12T03:15:36;1.00;60.30
15879;DHT22;61999;51.514;14.614;2022-11-12T03:18:04;1.00;60.40
15879;DHT22;61999;51.514;14.614;2022-11-12T03:20:32;0.90;60.40
15879;DHT22;61999;51.514;14.614;2022-11-12T03:23:04;0.90;60.40
15879;DHT22;61999;51.514;14.614;2022-11-12T03:25:35;0.90;60.40
15879;DHT22;61999;51.514;14.614;2022-11-12T03:28:07;0.90;60.40
15879;DHT22;61999;51.514;14.614;2022-11-12T03:30:39;0.80;60.40
15879;DHT22;61999;51.514;14.614;2022-11-12T03:33:11;0.80;60.40
15879;DHT22;61999;51.514;14.614;2022-11-12T03:35:41;0.80;60.40
15879;DHT22;61999;51.514;14.614;2022-11-12T03:38:09;0.80;60.40
15879;DHT22;61999;51.514;14.614;2022-11-12T03:40:39;0.80;60.40
15879;DHT22;61999;51.514;14.614;2022-11-12T03:43:08;0.70;60.30
15879;DHT22;61999;51.514;14.614;2022-11-12T03:45:36;0.70;60.30
15879;DHT22;61999;51.514;14.614;2022-11-12T03:48:05;0.70;60.30
15879;DHT22;61999;51.514;14.614;2022-11-12T03:50:34;0.70;60.30
15879;DHT22;61999;51.514;14.614;2022-11-12T03:53:02;0.70;60.40
15879;DHT22;61999;51.514;14.614;2022-11-12T03:55:31;0.70;60.40
15879;DHT22;61999;51.514;14.614;2022-11-12T03:58:01;0.60;60.30
15879;DHT22;61999;51.514;14.614;2022-11-12T04:00:30;0.60;60.30
15879;DHT22;61999;51.514;14.614;2022-11-12T04:02:59;0.60;60.30
15879;DHT22;61999;51.514;14.614;2022-11-12T04:05:27;0.60;60.30
15879;DHT22;61999;51.514;14.614;2022-11-12T04:08:15;0.50;60.20
15879;DHT22;61999;51.514;14.614;2022-11-12T04:11:05;0.50;60.30
15879;DHT22;61999;51.514;14.614;2022-11-12T04:13:37;0.50;60.30
15879;DHT22;61999;51.514;14.614;2022-11-12T04:16:08;0.50;60.30
15879;DHT22;61999;51.514;14.614;2022-11-12T04:18:56;0.40;60.20
15879;DHT22;61999;51.514;14.614;2022-11-12T04:21:46;0.40;60.20
15879;DHT22;61999;51.514;14.614;2022-11-12T04:24:25;0.40;60.20
15879;DHT22;61999;51.514;14.614;2022-11-12T04:27:14;0.30;60.20
15879;DHT22;61999;51.514;14.614;2022-11-12T04:29:46;0.30;60.30
15879;DHT22;61999;51.514;14.614;2022-11-12T04:32:35;0.30;60.20
15879;DHT22;61999;51.514;14.614;2022-11-12T04:35:06;0.30;60.20
15879;DHT22;61999;51.514;14.614;2022-11-12T04:37:36;0.20;60.20
15879;DHT22;61999;51.514;14.614;2022-11-12T04:40:15;0.20;60.20
15879;DHT22;61999;51.514;14.614;2022-11-12T04:43:04;0.20;60.30
15879;DHT22;61999;51.514;14.614;2022-11-12T04:45:55;0.20;60.30
15879;DHT22;61999;51.514;14.614;2022-11-12T04:48:24;0.20;60.30
15879;DHT22;61999;51.514;14.614;2022-11-12T04:50:54;0.20;60.30
15879;DHT22;61999;51.514;14.614;2022-11-12T04:53:26;0.10;60.30
15879;DHT22;61999;51.514;14.614;2022-11-12T04:55:56;0.10;60.30
15879;DHT22;61999;51.514;14.614;2022-11-12T04:58:26;0.10;60.30
15879;DHT22;61999;51.514;14.614;2022-11-12T05:00:56;0.00;60.30
15879;DHT22;61999;51.514;14.614;2022-11-12T05:03:24;0.00;60.30
15879;DHT22;61999;51.514;14.614;2022-11-12T05:05:53;0.00;60.30
15879;DHT22;61999;51.514;14.614;2022-11-12T05:08:28;0.00;60.40
15879;DHT22;61999;51.514;14.614;2022-11-12T05:10:56;0.00;60.40
15879;DHT22;61999;51.514;14.614;2022-11-12T05:13:24;0.00;60.40
15879;DHT22;61999;51.514;14.614;2022-11-12T05:15:56;0.00;61.20
15879;DHT22;61999;51.514;14.614;2022-11-12T05:18:29;-0.10;60.30
15879;DHT22;61999;51.514;14.614;2022-11-12T05:21:10;-0.10;60.40
15879;DHT22;61999;51.514;14.614;2022-11-12T05:23:58;-0.10;60.40
15879;DHT22;61999;51.514;14.614;2022-11-12T05:26:29;-0.10;60.40
15879;DHT22;61999;51.514;14.614;2022-11-12T05:28:57;-0.10;60.40
15879;DHT22;61999;51.514;14.614;2022-11-12T05:31:28;-0.10;60.50
15879;DHT22;61999;51.514;14.614;2022-11-12T05:33:57;-0.10;60.50
15879;DHT22;61999;51.514;14.614;2022-11-12T05:36:26;-0.10;60.60
15879;DHT22;61999;51.514;14.614;2022-11-12T05:38:54;-0.10;60.70
15879;DHT22;61999;51.514;14.614;2022-11-12T05:41:23;-0.10;60.60
15879;DHT22;61999;51.514;14.614;2022-11-12T05:43:52;-0.10;60.70
15879;DHT22;61999;51.514;14.614;2022-11-12T05:46:21;-0.10;60.70
15879;DHT22;61999;51.514;14.614;2022-11-12T05:48:51;-0.10;60.60
15879;DHT22;61999;51.514;14.614;2022-11-12T05:51:19;-0.20;60.60
15879;DHT22;61999;51.514;14.614;2022-11-12T05:53:48;-0.10;60.60
15879;DHT22;61999;51.514;14.614;2022-11-12T05:56:16;-0.20;60.60
15879;DHT22;61999;51.514;14.614;2022-11-12T05:58:45;-0.20;60.60
15879;DHT22;61999;51.514;14.614;2022-11-12T06:01:13;-0.20;60.60
15879;DHT22;61999;51.514;14.614;2022-11-12T06:03:41;-0.20;60.60
15879;DHT22;61999;51.514;14.614;2022-11-12T06:06:11;-0.20;60.70
15879;DHT22;61999;51.514;14.614;2022-11-12T06:08:40;-0.20;60.70
15879;DHT22;61999;51.514;14.614;2022-11-12T06:11:08;-0.20;60.60
15879;DHT22;61999;51.514;14.614;2022-11-12T06:13:37;-0.20;60.60
15879;DHT22;61999;51.514;14.614;2022-11-12T06:16:06;-0.20;60.60
15879;DHT22;61999;51.514;14.614;2022-11-12T06:18:35;-0.20;60.60
15879;DHT22;61999;51.514;14.614;2022-11-12T06:21:05;-0.20;60.60
15879;DHT22;61999;51.514;14.614;2022-11-12T06:23:53;-0.30;60.60
15879;DHT22;61999;51.514;14.614;2022-11-12T06:26:24;-0.30;60.50
15879;DHT22;61999;51.514;14.614;2022-11-12T06:28:53;-0.30;60.60
15879;DHT22;61999;51.514;14.614;2022-11-12T06:31:22;-0.30;60.60
15879;DHT22;61999;51.514;14.614;2022-11-12T06:33:51;-0.30;60.60
15879;DHT22;61999;51.514;14.614;2022-11-12T06:36:19;-0.30;60.60
15879;DHT22;61999;51.514;14.614;2022-11-12T06:38:49;-0.40;60.60
15879;DHT22;61999;51.514;14.614;2022-11-12T06:41:18;-0.40;60.70
15879;DHT22;61999;51.514;14.614;2022-11-12T06:43:46;-0.40;60.80
15879;DHT22;61999;51.514;14.614;2022-11-12T06:46:16;-0.40;60.80
15879;DHT22;61999;51.514;14.614;2022-11-12T06:48:44;-0.30;61.10
15879;DHT22;61999;51.514;14.614;2022-11-12T06:51:16;-0.30;61.40
15879;DHT22;61999;51.514;14.614;2022-11-12T06:53:47;-0.20;61.90
15879;DHT22;61999;51.514;14.614;2022-11-12T06:56:18;-0.10;62.20
15879;DHT22;61999;51.514;14.614;2022-11-12T06:58:47;0.00;62.50
15879;DHT22;61999;51.514;14.614;2022-11-12T07:01:16;0.10;62.70
15879;DHT22;61999;51.514;14.614;2022-11-12T07:03:45;0.20;62.90
15879;DHT22;61999;51.514;14.614;2022-11-12T07:06:18;0.40;63.10
15879;DHT22;61999;51.514;14.614;2022-11-12T07:08:50;0.50;63.20
15879;DHT22;61999;51.514;14.614;2022-11-12T07:11:20;0.70;63.10
15879;DHT22;61999;51.514;14.614;2022-11-12T07:13:49;0.80;62.90
15879;DHT22;61999;51.514;14.614;2022-11-12T07:16:17;1.00;62.80
15879;DHT22;61999;51.514;14.614;2022-11-12T07:18:46;1.10;62.80
15879;DHT22;61999;51.514;14.614;2022-11-12T07:21:18;1.20;62.80
15879;DHT22;61999;51.514;14.614;2022-11-12T07:23:47;1.20;62.50
15879;DHT22;61999;51.514;14.614;2022-11-12T07:26:18;1.30;62.60
15879;DHT22;61999;51.514;14.614;2022-11-12T07:28:50;1.40;62.80
15879;DHT22;61999;51.514;14.614;2022-11-12T07:31:19;1.50;62.70
15879;DHT22;61999;51.514;14.614;2022-11-12T07:33:48;1.60;62.50
15879;DHT22;61999;51.514;14.614;2022-11-12T07:36:19;1.70;62.50
15879;DHT22;61999;51.514;14.614;2022-11-12T07:38:50;1.80;62.40
15879;DHT22;61999;51.514;14.614;2022-11-12T07:41:24;1.90;62.50
15879;DHT22;61999;51.514;14.614;2022-11-12T07:43:53;2.00;62.80
15879;DHT22;61999;51.514;14.614;2022-11-12T07:46:23;2.10;62.60
15879;DHT22;61999;51.514;14.614;2022-11-12T07:48:54;2.20;62.40
15879;DHT22;61999;51.514;14.614;2022-11-12T07:51:24;2.30;62.10
15879;DHT22;61999;51.514;14.614;2022-11-12T07:53:54;2.30;61.90
15879;DHT22;61999;51.514;14.614;2022-11-12T07:56:27;2.30;61.60
15879;DHT22;61999;51.514;14.614;2022-11-12T07:58:56;2.30;61.50
15879;DHT22;61999;51.514;14.614;2022-11-12T08:01:27;2.30;61.40
15879;DHT22;61999;51.514;14.614;2022-11-12T08:03:58;2.30;61.30
15879;DHT22;61999;51.514;14.614;2022-11-12T08:06:29;2.30;61.30
15879;DHT22;61999;51.514;14.614;2022-11-12T08:09:00;2.30;61.40
15879;DHT22;61999;51.514;14.614;2022-11-12T08:11:32;2.30;61.40
15879;DHT22;61999;51.514;14.614;2022-11-12T08:14:02;2.30;61.70
15879;DHT22;61999;51.514;14.614;2022-11-12T08:16:31;2.30;62.20
15879;DHT22;61999;51.514;14.614;2022-11-12T08:19:00;2.40;61.70
15879;DHT22;61999;51.514;14.614;2022-11-12T08:21:32;2.40;61.80
15879;DHT22;61999;51.514;14.614;2022-11-12T08:24:04;2.50;62.40
15879;DHT22;61999;51.514;14.614;2022-11-12T08:26:34;2.50;61.90
15879;DHT22;61999;51.514;14.614;2022-11-12T08:29:03;2.60;62.20
15879;DHT22;61999;51.514;14.614;2022-11-12T08:31:34;2.70;62.60
15879;DHT22;61999;51.514;14.614;2022-11-12T08:34:02;2.80;62.60
15879;DHT22;61999;51.514;14.614;2022-11-12T08:36:38;2.90;62.80
15879;DHT22;61999;51.514;14.614;2022-11-12T08:39:07;3.00;62.70
15879;DHT22;61999;51.514;14.614;2022-11-12T08:41:37;3.10;62.90
15879;DHT22;61999;51.514;14.614;2022-11-12T08:44:06;3.20;62.90
15879;DHT22;61999;51.514;14.614;2022-11-12T08:46:34;3.30;63.00
15879;DHT22;61999;51.514;14.614;2022-11-12T08:51:57;3.60;63.20
15879;DHT22;61999;51.514;14.614;2022-11-12T08:54:26;3.70;63.20
15879;DHT22;61999;51.514;14.614;2022-11-12T08:56:55;3.80;63.00
15879;DHT22;61999;51.514;14.614;2022-11-12T08:59:24;3.90;62.90
15879;DHT22;61999;51.514;14.614;2022-11-12T09:01:52;4.00;62.80
15879;DHT22;61999;51.514;14.614;2022-11-12T09:04:21;4.10;62.80
15879;DHT22;61999;51.514;14.614;2022-11-12T09:06:49;4.20;62.50
15879;DHT22;61999;51.514;14.614;2022-11-12T09:09:19;4.40;62.70
15879;DHT22;61999;51.514;14.614;2022-11-12T09:11:48;4.50;62.80
15879;DHT22;61999;51.514;14.614;2022-11-12T09:14:18;4.60;62.80
15879;DHT22;61999;51.514;14.614;2022-11-12T09:16:46;4.60;62.80
15879;DHT22;61999;51.514;14.614;2022-11-12T09:19:15;4.80;62.90
15879;DHT22;61999;51.514;14.614;2022-11-12T09:21:43;5.00;62.80
15879;DHT22;61999;51.514;14.614;2022-11-12T09:24:12;5.10;62.70
15879;DHT22;61999;51.514;14.614;2022-11-12T09:26:40;5.30;61.70
15879;DHT22;61999;51.514;14.614;2022-11-12T09:29:09;5.50;61.50
15879;DHT22;61999;51.514;14.614;2022-11-12T09:31:39;5.70;61.40
15879;DHT22;61999;51.514;14.614;2022-11-12T09:34:08;5.90;61.10
15879;DHT22;61999;51.514;14.614;2022-11-12T09:36:37;6.00;60.50
15879;DHT22;61999;51.514;14.614;2022-11-12T09:39:05;6.20;58.60
15879;DHT22;61999;51.514;14.614;2022-11-12T09:41:35;6.40;59.30
15879;DHT22;61999;51.514;14.614;2022-11-12T09:44:09;6.50;58.60
15879;DHT22;61999;51.514;14.614;2022-11-12T09:46:45;6.70;57.10
15879;DHT22;61999;51.514;14.614;2022-11-12T09:49:22;6.80;57.80
15879;DHT22;61999;51.514;14.614;2022-11-12T09:51:55;6.90;57.60
15879;DHT22;61999;51.514;14.614;2022-11-12T09:54:32;7.10;56.40
15879;DHT22;61999;51.514;14.614;2022-11-12T09:57:02;7.10;57.50
15879;DHT22;61999;51.514;14.614;2022-11-12T09:59:34;7.30;58.00
15879;DHT22;61999;51.514;14.614;2022-11-12T10:02:21;7.50;57.80
15879;DHT22;61999;51.514;14.614;2022-11-12T10:05:02;7.70;57.80
15879;DHT22;61999;51.514;14.614;2022-11-12T10:08:08;8.10;54.50
15879;DHT22;61999;51.514;14.614;2022-11-12T10:10:59;8.60;54.50
15879;DHT22;61999;51.514;14.614;2022-11-12T10:13:43;8.80;55.00
15879;DHT22;61999;51.514;14.614;2022-11-12T10:16:26;9.20;54.80
15879;DHT22;61999;51.514;14.614;2022-11-12T10:19:27;9.50;55.20
15879;DHT22;61999;51.514;14.614;2022-11-12T10:22:18;10.00;54.10
15879;DHT22;61999;51.514;14.614;2022-11-12T10:27:39;11.00;51.40
15879;DHT22;61999;51.514;14.614;2022-11-12T10:30:15;11.50;52.00
15879;DHT22;61999;51.514;14.614;2022-11-12T10:32:53;12.00;48.10
15879;DHT22;61999;51.514;14.614;2022-11-12T10:35:23;12.30;50.30
15879;DHT22;61999;51.514;14.614;2022-11-12T10:37:55;12.70;51.50
15879;DHT22;61999;51.514;14.614;2022-11-12T10:40:31;13.20;49.50
15879;DHT22;61999;51.514;14.614;2022-11-12T10:43:03;13.60;50.80
15879;DHT22;61999;51.514;14.614;2022-11-12T10:45:33;14.10;47.70
15879;DHT22;61999;51.514;14.614;2022-11-12T10:48:02;14.60;45.90
15879;DHT22;61999;51.514;14.614;2022-11-12T10:50:34;14.90;48.70
15879;DHT22;61999;51.514;14.614;2022-11-12T10:53:10;15.30;49.30
15879;DHT22;61999;51.514;14.614;2022-11-12T10:55:55;15.80;44.20
15879;DHT22;61999;51.514;14.614;2022-11-12T10:58:25;16.20;48.30
15879;DHT22;61999;51.514;14.614;2022-11-12T11:00:59;16.60;48.90
15879;DHT22;61999;51.514;14.614;2022-11-12T11:03:32;17.00;48.00
15879;DHT22;61999;51.514;14.614;2022-11-12T11:06:05;17.40;46.20
15879;DHT22;61999;51.514;14.614;2022-11-12T11:08:46;17.70;45.80
15879;DHT22;61999;51.514;14.614;2022-11-12T11:11:21;18.00;46.20
15879;DHT22;61999;51.514;14.614;2022-11-12T11:14:24;18.30;45.30
15879;DHT22;61999;51.514;14.614;2022-11-12T11:16:59;18.70;45.20
15879;DHT22;61999;51.514;14.614;2022-11-12T11:19:36;19.00;44.40
15879;DHT22;61999;51.514;14.614;2022-11-12T11:22:25;19.30;43.30
15879;DHT22;61999;51.514;14.614;2022-11-12T11:25:13;19.60;41.90
15879;DHT22;61999;51.514;14.614;2022-11-12T11:27:59;19.90;41.50
15879;DHT22;61999;51.514;14.614;2022-11-12T11:30:39;20.20;40.10
15879;DHT22;61999;51.514;14.614;2022-11-12T11:33:23;20.40;38.90
15879;DHT22;61999;51.514;14.614;2022-11-12T11:36:13;20.60;38.80
15879;DHT22;61999;51.514;14.614;2022-11-12T11:38:55;20.70;37.40
15879;DHT22;61999;51.514;14.614;2022-11-12T11:41:52;21.00;32.90
15879;DHT22;61999;51.514;14.614;2022-11-12T11:44:39;21.00;31.20
15879;DHT22;61999;51.514;14.614;2022-11-12T11:47:27;20.90;32.50
15879;DHT22;61999;51.514;14.614;2022-11-12T11:50:26;20.80;31.80
15879;DHT22;61999;51.514;14.614;2022-11-12T11:53:11;20.70;33.50
15879;DHT22;61999;51.514;14.614;2022-11-12T11:55:53;20.70;34.40
15879;DHT22;61999;51.514;14.614;2022-11-12T11:58:51;20.90;34.30
15879;DHT22;61999;51.514;14.614;2022-11-12T12:01:35;21.00;30.00
15879;DHT22;61999;51.514;14.614;2022-11-12T12:04:37;21.10;29.60
15879;DHT22;61999;51.514;14.614;2022-11-12T12:07:21;21.10;30.00
15879;DHT22;61999;51.514;14.614;2022-11-12T12:10:04;21.30;33.30
15879;DHT22;61999;51.514;14.614;2022-11-12T12:12:53;21.40;29.60
15879;DHT22;61999;51.514;14.614;2022-11-12T12:15:36;21.40;30.90
15879;DHT22;61999;51.514;14.614;2022-11-12T12:18:24;21.50;33.30
15879;DHT22;61999;51.514;14.614;2022-11-12T12:21:05;21.70;33.70
15879;DHT22;61999;51.514;14.614;2022-11-12T12:23:43;22.00;30.00
15879;DHT22;61999;51.514;14.614;2022-11-12T12:26:18;22.10;30.80
15879;DHT22;61999;51.514;14.614;2022-11-12T12:28:54;22.10;32.30
15879;DHT22;61999;51.514;14.614;2022-11-12T12:31:31;22.20;32.50
15879;DHT22;61999;51.514;14.614;2022-11-12T12:34:14;22.40;30.80
15879;DHT22;61999;51.514;14.614;2022-11-12T12:36:51;22.50;31.70
15879;DHT22;61999;51.514;14.614;2022-11-12T12:39:25;22.70;31.60
15879;DHT22;61999;51.514;14.614;2022-11-12T12:42:07;23.00;28.20
15879;DHT22;61999;51.514;14.614;2022-11-12T12:44:50;23.00;28.40
15879;DHT22;61999;51.514;14.614;2022-11-12T12:47:28;22.80;29.60
15879;DHT22;61999;51.514;14.614;2022-11-12T12:50:05;22.70;29.60
15879;DHT22;61999;51.514;14.614;2022-11-12T12:53:01;22.70;28.20
15879;DHT22;61999;51.514;14.614;2022-11-12T12:55:41;22.50;27.30
15879;DHT22;61999;51.514;14.614;2022-11-12T12:58:19;22.40;27.40
15879;DHT22;61999;51.514;14.614;2022-11-12T13:01:00;22.20;27.80
15879;DHT22;61999;51.514;14.614;2022-11-12T13:03:49;21.90;28.60
15879;DHT22;61999;51.514;14.614;2022-11-12T13:06:25;21.70;29.00
15879;DHT22;61999;51.514;14.614;2022-11-12T13:09:00;21.70;29.80
15879;DHT22;61999;51.514;14.614;2022-11-12T13:11:49;21.80;28.60
15879;DHT22;61999;51.514;14.614;2022-11-12T13:15:08;21.90;28.70
15879;DHT22;61999;51.514;14.614;2022-11-12T13:17:48;21.90;28.20
15879;DHT22;61999;51.514;14.614;2022-11-12T13:20:37;21.90;29.00
15879;DHT22;61999;51.514;14.614;2022-11-12T13:23:43;21.90;29.10
15879;DHT22;61999;51.514;14.614;2022-11-12T13:26:46;22.00;29.40
15879;DHT22;61999;51.514;14.614;2022-11-12T13:29:22;22.00;30.00
15879;DHT22;61999;51.514;14.614;2022-11-12T13:32:35;22.20;30.00
15879;DHT22;61999;51.514;14.614;2022-11-12T13:35:32;22.30;29.60
15879;DHT22;61999;51.514;14.614;2022-11-12T13:38:10;22.40;29.70
15879;DHT22;61999;51.514;14.614;2022-11-12T13:40:44;22.60;28.50
15879;DHT22;61999;51.514;14.614;2022-11-12T13:43:27;22.70;28.10
15879;DHT22;61999;51.514;14.614;2022-11-12T13:46:23;22.60;29.00
15879;DHT22;61999;51.514;14.614;2022-11-12T13:48:58;22.60;29.30
15879;DHT22;61999;51.514;14.614;2022-11-12T13:51:38;22.60;28.00
15879;DHT22;61999;51.514;14.614;2022-11-12T13:54:32;22.50;28.80
15879;DHT22;61999;51.514;14.614;2022-11-12T13:57:26;22.40;28.90
15879;DHT22;61999;51.514;14.614;2022-11-12T14:00:09;22.20;28.90
15879;DHT22;61999;51.514;14.614;2022-11-12T14:02:53;21.90;28.50
15879;DHT22;61999;51.514;14.614;2022-11-12T14:05:27;21.60;28.40
15879;DHT22;61999;51.514;14.614;2022-11-12T14:08:12;21.40;28.30
15879;DHT22;61999;51.514;14.614;2022-11-12T14:14:35;20.90;28.40
15879;DHT22;61999;51.514;14.614;2022-11-12T14:17:20;20.50;28.70
15879;DHT22;61999;51.514;14.614;2022-11-12T14:20:18;20.20;29.10
15879;DHT22;61999;51.514;14.614;2022-11-12T14:22:52;20.00;29.50
15879;DHT22;61999;51.514;14.614;2022-11-12T14:25:25;19.80;29.80
15879;DHT22;61999;51.514;14.614;2022-11-12T14:27:55;19.50;29.90
15879;DHT22;61999;51.514;14.614;2022-11-12T14:30:26;19.30;30.00
15879;DHT22;61999;51.514;14.614;2022-11-12T14:32:59;19.00;30.00
15879;DHT22;61999;51.514;14.614;2022-11-12T14:35:36;18.70;30.00
15879;DHT22;61999;51.514;14.614;2022-11-12T14:38:14;18.40;30.20
15879;DHT22;61999;51.514;14.614;2022-11-12T14:40:51;18.10;30.60
15879;DHT22;61999;51.514;14.614;2022-11-12T14:43:30;17.80;30.70
15879;DHT22;61999;51.514;14.614;2022-11-12T14:46:03;17.40;30.80
15879;DHT22;61999;51.514;14.614;2022-11-12T14:48:37;17.10;31.00
15879;DHT22;61999;51.514;14.614;2022-11-12T14:51:19;16.70;31.30
15879;DHT22;61999;51.514;14.614;2022-11-12T14:53:55;16.30;31.50
15879;DHT22;61999;51.514;14.614;2022-11-12T14:56:31;16.00;31.80
15879;DHT22;61999;51.514;14.614;2022-11-12T14:59:03;15.60;32.00
15879;DHT22;61999;51.514;14.614;2022-11-12T15:01:33;15.30;32.40
15879;DHT22;61999;51.514;14.614;2022-11-12T15:04:23;15.00;33.20
15879;DHT22;61999;51.514;14.614;2022-11-12T15:06:54;14.70;33.20
15879;DHT22;61999;51.514;14.614;2022-11-12T15:09:32;14.40;33.80
15879;DHT22;61999;51.514;14.614;2022-11-12T15:12:06;14.10;34.00
15879;DHT22;61999;51.514;14.614;2022-11-12T15:14:39;13.80;34.20
15879;DHT22;61999;51.514;14.614;2022-11-12T15:17:21;13.60;35.00
15879;DHT22;61999;51.514;14.614;2022-11-12T15:20:03;13.30;35.00
15879;DHT22;61999;51.514;14.614;2022-11-12T15:22:33;13.10;35.60
15879;DHT22;61999;51.514;14.614;2022-11-12T15:25:18;12.90;37.10
15879;DHT22;61999;51.514;14.614;2022-11-12T15:27:51;12.60;36.20
15879;DHT22;61999;51.514;14.614;2022-11-12T15:30:22;12.40;36.50
15879;DHT22;61999;51.514;14.614;2022-11-12T15:33:16;12.10;36.40
15879;DHT22;61999;51.514;14.614;2022-11-12T15:35:55;11.80;36.90
15879;DHT22;61999;51.514;14.614;2022-11-12T15:38:27;11.70;37.00
15879;DHT22;61999;51.514;14.614;2022-11-12T15:41:02;11.40;37.40
15879;DHT22;61999;51.514;14.614;2022-11-12T15:43:34;11.30;38.60
15879;DHT22;61999;51.514;14.614;2022-11-12T15:46:10;11.10;38.90
15879;DHT22;61999;51.514;14.614;2022-11-12T15:48:41;10.90;39.00
15879;DHT22;61999;51.514;14.614;2022-11-12T15:51:10;10.60;38.60
15879;DHT22;61999;51.514;14.614;2022-11-12T15:53:39;10.50;38.50
15879;DHT22;61999;51.514;14.614;2022-11-12T15:56:11;10.20;39.10
15879;DHT22;61999;51.514;14.614;2022-11-12T15:58:44;10.10;38.90
15879;DHT22;61999;51.514;14.614;2022-11-12T16:01:13;9.90;38.90
15879;DHT22;61999;51.514;14.614;2022-11-12T16:03:42;9.70;39.40
15879;DHT22;61999;51.514;14.614;2022-11-12T16:06:11;9.60;39.50
15879;DHT22;61999;51.514;14.614;2022-11-12T16:08:39;9.40;41.20
15879;DHT22;61999;51.514;14.614;2022-11-12T16:11:08;9.20;40.30
15879;DHT22;61999;51.514;14.614;2022-11-12T16:14:00;9.10;41.20
15879;DHT22;61999;51.514;14.614;2022-11-12T16:16:30;8.90;40.70
15879;DHT22;61999;51.514;14.614;2022-11-12T16:18:59;8.90;42.60
15879;DHT22;61999;51.514;14.614;2022-11-12T16:21:27;8.90;42.30